Station History

Weather Underground - logo

Station Historical Data
Daily Summary for July 12, 2018 Units:  Metric    English   Both
« Previous Day
Next Day »
Daily Weekly Monthly Yearly Custom
  High: Low: Average:
Temperature: 37.7 °C 21.9 °C 29.9 °C
Dew Point: 19.9 °C 12.6 °C 16 °C
Humidity: 63 % 24 % 45 %
Wind Speed: 13 km/h 0 km/h 2.3 km/h
Wind Gust: 5.3 km/h - -
Wind:- - WSW
Pressure: 1011.1 hPa 1008 hPa -
Precipitation: 0 mm    
Historical Graphs
 
 
Tabular Data for July 12, 2018
Time Temperature Dew Point Pressure Wind Wind Speed Wind Gust Humidity Rainfall Rate (Hourly)
00:04 26.2 °C 16.2 °C 1008 hPa SE 1.9 km/h 0.3 km/h 54 % 0 mm
00:09 26.2 °C 15.8 °C 1008 hPa SE 1.9 km/h   53 % 0 mm
00:14 26.2 °C 15.2 °C 1008 hPa Calm     51 % 0 mm
00:19 26.2 °C 14.6 °C 1008 hPa Calm     49 % 0 mm
00:24 26.1 °C 14.6 °C 1008 hPa Calm     49 % 0 mm
00:29 26 °C 14.8 °C 1008 hPa Calm     50 % 0 mm
00:34 25.9 °C 14.3 °C 1008 hPa Calm     49 % 0 mm
00:39 25.8 °C 13.9 °C 1008.4 hPa Calm     48 % 0 mm
00:44 25.7 °C 14.2 °C 1008.4 hPa Calm     49 % 0 mm
00:49 25.6 °C 14.1 °C 1008.4 hPa Calm     49 % 0 mm
00:54 25.4 °C 13.9 °C 1008.4 hPa Calm     49 % 0 mm
00:59 25.2 °C 13.7 °C 1008.4 hPa Calm     49 % 0 mm
01:04 25.1 °C 13.6 °C 1008.4 hPa Calm     49 % 0 mm
01:09 25 °C 13.6 °C 1008.4 hPa Calm     49 % 0 mm
01:14 24.9 °C 13.8 °C 1008.4 hPa Calm     50 % 0 mm
01:19 24.7 °C 13.6 °C 1008.4 hPa SE 1.9 km/h 0.5 km/h 50 % 0 mm
01:24 24.8 °C 13.3 °C 1008.4 hPa Calm     49 % 0 mm
01:29 24.8 °C 13.4 °C 1008.4 hPa Calm     49 % 0 mm
01:34 24.8 °C 13.3 °C 1008.4 hPa Calm     49 % 0 mm
01:39 24.7 °C 13.2 °C 1008.4 hPa Calm     49 % 0 mm
01:44 24.6 °C 13.7 °C 1008.4 hPa Calm     51 % 0 mm
01:49 24.4 °C 13.7 °C 1008.4 hPa Calm     51 % 0 mm
01:54 24.3 °C 13.5 °C 1008.4 hPa Calm     51 % 0 mm
01:59 24.2 °C 13.4 °C 1008 hPa Calm     51 % 0 mm
02:04 24.2 °C 13.1 °C 1008 hPa Calm     50 % 0 mm
02:09 24.2 °C 13.1 °C 1008 hPa Calm     50 % 0 mm
02:14 24.2 °C 13.4 °C 1008 hPa Calm     51 % 0 mm
02:19 24.2 °C 13.1 °C 1008 hPa Calm     50 % 0 mm
02:24 24.2 °C 13.7 °C 1008 hPa Calm     52 % 0 mm
02:29 24.1 °C 13.6 °C 1008 hPa Calm     52 % 0 mm
02:34 23.9 °C 14.1 °C 1008 hPa Calm     54 % 0 mm
02:39 23.9 °C 13.2 °C 1008 hPa Calm     51 % 0 mm
02:44 24.1 °C 13.6 °C 1008 hPa Calm     52 % 0 mm
02:49 24 °C 13.6 °C 1008 hPa Calm     52 % 0 mm
02:54 23.8 °C 14.5 °C 1008 hPa Calm     56 % 0 mm
02:59 23.7 °C 13.3 °C 1008 hPa Calm     52 % 0 mm
03:04 23.7 °C 14.2 °C 1008 hPa Calm     55 % 0 mm
03:09 23.7 °C 14.1 °C 1008 hPa Calm     55 % 0 mm
03:14 23.6 °C 14 °C 1008 hPa Calm     55 % 0 mm
03:19 23.4 °C 14.4 °C 1008 hPa Calm     57 % 0 mm
03:24 23.4 °C 14.4 °C 1008 hPa Calm     57 % 0 mm
03:29 23.3 °C 13.8 °C 1008 hPa Calm     55 % 0 mm
03:34 23.3 °C 13.7 °C 1008 hPa Calm     55 % 0 mm
03:39 23.3 °C 14.3 °C 1008 hPa Calm     57 % 0 mm
03:44 23.3 °C 15.4 °C 1008 hPa Calm     61 % 0 mm
03:49 23.3 °C 14.8 °C 1008 hPa Calm     59 % 0 mm
03:54 23.2 °C 14.7 °C 1008 hPa Calm     59 % 0 mm
03:59 23.1 °C 14.7 °C 1008 hPa Calm     59 % 0 mm
04:04 23.1 °C 14.1 °C 1008 hPa Calm     57 % 0 mm
04:09 23.1 °C 14.3 °C 1008 hPa Calm     58 % 0 mm
04:14 23 °C 14.8 °C 1008 hPa Calm     60 % 0 mm
04:19 22.9 °C 14.5 °C 1008 hPa Calm     59 % 0 mm
04:24 22.9 °C 14.5 °C 1008 hPa Calm     59 % 0 mm
04:29 22.9 °C 14.8 °C 1008 hPa Calm     60 % 0 mm
04:34 22.9 °C 14.5 °C 1008 hPa Calm     59 % 0 mm
04:39 22.8 °C 14.1 °C 1008 hPa Calm     58 % 0 mm
04:44 22.8 °C 13.9 °C 1008.4 hPa Calm     57 % 0 mm
04:49 22.8 °C 13.6 °C 1008.4 hPa Calm     56 % 0 mm
04:54 22.9 °C 13.9 °C 1008.4 hPa Calm     57 % 0 mm
04:59 22.8 °C 13.9 °C 1008.4 hPa ESE 1.6 km/h   57 % 0 mm
05:04 22.8 °C 13.9 °C 1008.7 hPa SE 1.6 km/h   57 % 0 mm
05:09 22.8 °C 13.9 °C 1008.7 hPa Calm     57 % 0 mm
05:14 22.7 °C 13.5 °C 1008.7 hPa Calm     56 % 0 mm
05:19 22.7 °C 13.7 °C 1009 hPa SE 1.9 km/h   57 % 0 mm
05:24 22.6 °C 13.6 °C 1009 hPa SE 1.9 km/h   57 % 0 mm
05:29 22.4 °C 13.8 °C 1009 hPa SE 1.9 km/h 0.2 km/h 58 % 0 mm
05:34 22.4 °C 14 °C 1009 hPa Calm     59 % 0 mm
05:39 22.2 °C 13.8 °C 1009 hPa Calm     59 % 0 mm
05:44 22.2 °C 13.8 °C 1009.4 hPa Calm     59 % 0 mm
05:49 22.1 °C 13.9 °C 1009.4 hPa Calm     60 % 0 mm
05:54 22 °C 14.1 °C 1009.4 hPa Calm     61 % 0 mm
05:59 22 °C 13.9 °C 1009.7 hPa SE 1.9 km/h 0.2 km/h 60 % 0 mm
06:04 21.9 °C 13.8 °C 1009.7 hPa SE 1.9 km/h 0.2 km/h 60 % 0 mm
06:09 21.9 °C 13.8 °C 1009.7 hPa Calm     60 % 0 mm
06:14 21.9 °C 13.8 °C 1009.7 hPa ESE 1.9 km/h   60 % 0 mm
06:19 22 °C 13.9 °C 1009.7 hPa ESE 1.9 km/h 0.2 km/h 60 % 0 mm
06:24 22.1 °C 14 °C 1010 hPa ESE 1.9 km/h   60 % 0 mm
06:29 22.3 °C 13.9 °C 1010 hPa East 1.9 km/h 0.2 km/h 59 % 0 mm
06:34 22.4 °C 14.1 °C 1010 hPa SSE 1.9 km/h   59 % 0 mm
06:39 22.5 °C 14.1 °C 1010 hPa Calm     59 % 0 mm
06:44 22.6 °C 14.2 °C 1010 hPa Calm     59 % 0 mm
06:49 22.7 °C 14.3 °C 1010.4 hPa Calm     59 % 0 mm
06:54 22.8 °C 14.4 °C 1010.4 hPa Calm     59 % 0 mm
06:59 22.9 °C 14.5 °C 1010.4 hPa Calm     59 % 0 mm
07:04 23.1 °C 14.7 °C 1010.4 hPa Calm     59 % 0 mm
07:09 23.3 °C 14.8 °C 1010.4 hPa Calm     59 % 0 mm
07:14 23.4 °C 15.5 °C 1010.4 hPa Calm     61 % 0 mm
07:19 23.7 °C 15.4 °C 1010.4 hPa Calm     60 % 0 mm
07:24 24.3 °C 15.6 °C 1010.4 hPa Calm     58 % 0 mm
07:29 25 °C 15.1 °C 1010.7 hPa ESE 3.7 km/h 1.3 km/h 54 % 0 mm
07:34 25.3 °C 15.1 °C 1010.7 hPa SE 1.9 km/h   53 % 0 mm
07:39 26.1 °C 14.9 °C 1010.7 hPa SSE 1.9 km/h   50 % 0 mm
07:44 26.8 °C 15.5 °C 1010.7 hPa Calm     50 % 0 mm
07:49 27.5 °C 15.5 °C 1010.7 hPa SSE 3.7 km/h 0.2 km/h 48 % 0 mm
07:54 27.8 °C 15.8 °C 1010.7 hPa SSE 1.9 km/h   48 % 0 mm
07:59 28 °C 15.3 °C 1010.7 hPa SSW 3.7 km/h 0.8 km/h 46 % 0 mm
08:00 28 °C 15.3 °C 1010.7 hPa SSW 1.9 km/h 0.8 km/h 46 % 0 mm
08:09 28.6 °C 15.4 °C 1010.7 hPa South 3.7 km/h 1.1 km/h 45 % 0 mm
08:14 28.7 °C 15.2 °C 1010.7 hPa ENE 3.2 km/h 1.6 km/h 44 % 0 mm
08:19 28.8 °C 14.9 °C 1010.7 hPa Calm     43 % 0 mm
08:24 29.1 °C 14.4 °C 1010.7 hPa ESE 5.6 km/h 1.3 km/h 41 % 0 mm
08:29 29 °C 14.8 °C 1010.7 hPa SE 3.7 km/h 1.1 km/h 42 % 0 mm
08:34 29.1 °C 14.8 °C 1010.7 hPa SSE 3.7 km/h 0.6 km/h 42 % 0 mm
08:39 29.5 °C 14.5 °C 1010.7 hPa ESE 3.7 km/h 1.3 km/h 40 % 0 mm
08:44 29.6 °C 14.6 °C 1010.4 hPa SE 3.7 km/h 1 km/h 40 % 0 mm
08:49 29.9 °C 14.9 °C 1010.4 hPa ESE 3.7 km/h 0.3 km/h 40 % 0 mm
08:54 30.4 °C 15.7 °C 1010.7 hPa SE 1.9 km/h 0.2 km/h 41 % 0 mm
08:59 30.7 °C 15.6 °C 1010.7 hPa Calm     40 % 0 mm
09:04 30.9 °C 15.8 °C 1010.7 hPa Calm     40 % 0 mm
09:09 31.1 °C 16.7 °C 1010.7 hPa Calm     42 % 0 mm
09:14 31.3 °C 15.7 °C 1010.7 hPa SSE 3.7 km/h 0.6 km/h 39 % 0 mm
09:19 31.5 °C 15.9 °C 1010.4 hPa Calm   1 km/h 39 % 0 mm
09:24 31.8 °C 16.1 °C 1010.7 hPa South 3.7 km/h 0.3 km/h 39 % 0 mm
09:29 32.2 °C 16.8 °C 1010.7 hPa WNW 1.9 km/h 0.2 km/h 40 % 0 mm
09:34 32.3 °C 16.9 °C 1010.4 hPa NW 1.9 km/h   40 % 0 mm
09:39 32.3 °C 17.3 °C 1010.7 hPa Calm     41 % 0 mm
09:44 32.3 °C 17 °C 1010.7 hPa WNW 1.9 km/h 0.2 km/h 40 % 0 mm
09:49 32.4 °C 16.3 °C 1010.7 hPa SE 3.7 km/h 1.4 km/h 38 % 0 mm
09:54 32.4 °C 16.7 °C 1010.7 hPa NW 3.7 km/h 1.3 km/h 39 % 0 mm
09:59 32.6 °C 17.6 °C 1010.7 hPa NW 1.9 km/h 0.8 km/h 41 % 0 mm
10:04 32.6 °C 16.8 °C 1010.7 hPa NNE 3.7 km/h 0.8 km/h 39 % 0 mm
10:09 32.6 °C 17.3 °C 1010.7 hPa NE 1.9 km/h 0.8 km/h 40 % 0 mm
10:14 32.8 °C 17.1 °C 1010.7 hPa South 5.6 km/h 1.9 km/h 39 % 0 mm
10:19 33.1 °C 18.5 °C 1010.7 hPa North 5.6 km/h 1.1 km/h 42 % 0 mm
10:24 33.4 °C 17.2 °C 1010.7 hPa NW 1.9 km/h 1 km/h 38 % 0 mm
10:29 33.6 °C 17.3 °C 1010.7 hPa NE 5.6 km/h 1.8 km/h 38 % 0 mm
10:34 33.5 °C 17.2 °C 1011.1 hPa North 5.6 km/h 2.6 km/h 38 % 0 mm
10:39 33.7 °C 17.4 °C 1011.1 hPa NNW 5.6 km/h 0.5 km/h 38 % 0 mm
10:44 34 °C 18.1 °C 1011.1 hPa ESE 5.6 km/h 1.1 km/h 39 % 0 mm
10:49 34.1 °C 17.3 °C 1011.1 hPa NNE 3.7 km/h 0.5 km/h 37 % 0 mm
10:54 34 °C 16.4 °C 1011.1 hPa North 5.6 km/h 2.4 km/h 35 % 0 mm
10:59 34.1 °C 16.9 °C 1011.1 hPa NNW 1.9 km/h 0.2 km/h 36 % 0 mm
11:04 34.2 °C 16.6 °C 1011.1 hPa NW 3.7 km/h   35 % 0 mm
11:09 34.4 °C 16.3 °C 1011.1 hPa North 5.6 km/h 0.2 km/h 34 % 0 mm
11:14 34.4 °C 15.8 °C 1011.1 hPa North 3.7 km/h 0.3 km/h 33 % 0 mm
11:19 34.7 °C 16.1 °C 1011.1 hPa West 3.7 km/h 1 km/h 33 % 0 mm
11:24 35.1 °C 16.8 °C 1011.1 hPa NNW 1.9 km/h 0.3 km/h 34 % 0 mm
11:29 35.3 °C 16.1 °C 1011.1 hPa SE 5.6 km/h 0.2 km/h 32 % 0 mm
11:34 35.4 °C 15.2 °C 1011.1 hPa NW 5.6 km/h 1 km/h 30 % 0 mm
11:39 35.5 °C 15.8 °C 1011.1 hPa SE 1.9 km/h 0.2 km/h 31 % 0 mm
11:44 35.6 °C 14.8 °C 1011.1 hPa NW 3.7 km/h 2.1 km/h 29 % 0 mm
11:49 35.4 °C 14.7 °C 1011.1 hPa NW 3.7 km/h 1 km/h 29 % 0 mm
11:54 35.5 °C 13.6 °C 1011.1 hPa West 1.9 km/h 0.8 km/h 27 % 0 mm
11:59 35.7 °C 14.4 °C 1011.1 hPa SW 1.9 km/h 1.4 km/h 28 % 0 mm
12:04 35.9 °C 12.8 °C 1011.1 hPa NW 5.6 km/h 1.1 km/h 25 % 0 mm
12:09 35.9 °C 14 °C 1010.7 hPa East 3.7 km/h 1.3 km/h 27 % 0 mm
12:14 36.3 °C 16.4 °C 1010.7 hPa ENE 1.9 km/h 0.3 km/h 31 % 0 mm
12:19 36.4 °C 16.6 °C 1010.7 hPa WNW 5.6 km/h 0.3 km/h 31 % 0 mm
12:24 36.6 °C 16.2 °C 1010.7 hPa SE 1.9 km/h   30 % 0 mm
12:29 36.7 °C 14.6 °C 1010.7 hPa NW 5.6 km/h 1.9 km/h 27 % 0 mm
12:34 36.6 °C 16.2 °C 1010.7 hPa WNW 1.9 km/h   30 % 0 mm
12:39 36.7 °C 14.1 °C 1010.7 hPa NW 5.6 km/h 3.9 km/h 26 % 0 mm
12:44 36.8 °C 14.7 °C 1010.4 hPa West 3.7 km/h 1.1 km/h 27 % 0 mm
12:49 36.9 °C 14.9 °C 1010.4 hPa NNW 3.7 km/h 0.2 km/h 27 % 0 mm
12:54 36.9 °C 14.2 °C 1010.4 hPa NW 5.6 km/h 1.1 km/h 26 % 0 mm
12:59 36.7 °C 14.1 °C 1010.4 hPa WNW 5.6 km/h 2.3 km/h 26 % 0 mm
13:04 36.8 °C 14.2 °C 1010.4 hPa NW 5.6 km/h 3.1 km/h 26 % 0 mm
13:09 36.9 °C 13.1 °C 1010.4 hPa NW 5.6 km/h 3.4 km/h 24 % 0 mm
13:14 36.8 °C 12.9 °C 1010.4 hPa SW 1.9 km/h 0.6 km/h 24 % 0 mm
13:19 37.3 °C 14 °C 1010.4 hPa WNW 3.2 km/h 1.9 km/h 25 % 0 mm
13:24 37.6 °C 13.6 °C 1010 hPa North 6.4 km/h 1.9 km/h 24 % 0 mm
13:28 37.7 °C 13.7 °C 1010 hPa NW 5.6 km/h 1 km/h 24 % 0 mm
13:34 37.4 °C 13.4 °C 1010.4 hPa NNW 8 km/h 5.3 km/h 24 % 0 mm
13:39 37.2 °C 13.2 °C 1010.4 hPa NW 3.7 km/h 2.1 km/h 24 % 0 mm
13:39 37.2 °C 13.2 °C 1010.4 hPa NW 3.7 km/h 1.6 km/h 24 % 0 mm
13:44 36.7 °C 12.8 °C 1010.4 hPa NW 5.6 km/h 4 km/h 24 % 0 mm
13:47 36.4 °C 12.6 °C 1010.4 hPa WNW 5.6 km/h 2.6 km/h 24 % 0 mm
13:49 36.3 °C 13.8 °C 1010 hPa NNE 4.8 km/h 3.5 km/h 26 % 0 mm
13:54 36.1 °C 13.6 °C 1010 hPa NW 5.6 km/h 1.8 km/h 26 % 0 mm
13:59 35.8 °C 13.3 °C 1010 hPa NNW 9.3 km/h 3.1 km/h 26 % 0 mm
14:04 35.3 °C 12.9 °C 1010 hPa WNW 7.4 km/h 3.1 km/h 26 % 0 mm
14:09 35 °C 13.8 °C 1010 hPa NW 13 km/h 3.2 km/h 28 % 0 mm
14:14 34.8 °C 13.6 °C 1010 hPa NW 11.1 km/h 3.4 km/h 28 % 0 mm
14:19 34.6 °C 13.9 °C 1010 hPa NW 5.6 km/h 3.2 km/h 29 % 0 mm
14:24 34.4 °C 14.3 °C 1010 hPa NW 8 km/h 2.3 km/h 30 % 0 mm
14:29 34.2 °C 13.6 °C 1010 hPa NW 5.6 km/h 5.3 km/h 29 % 0 mm
14:34 33.9 °C 14.9 °C 1010 hPa WNW 11.1 km/h 5.1 km/h 32 % 0 mm
14:39 33.4 °C 16.3 °C 1010 hPa WNW 5.6 km/h 2.6 km/h 36 % 0 mm
14:44 32.9 °C 16.3 °C 1010 hPa NW 5.6 km/h 1.9 km/h 37 % 0 mm
14:49 32.6 °C 16.8 °C 1010 hPa North 5.6 km/h 2.9 km/h 39 % 0 mm
14:54 32.4 °C 17.1 °C 1010 hPa WNW 5.6 km/h 1.9 km/h 40 % 0 mm
14:59 32.3 °C 17 °C 1010 hPa NNW 3.7 km/h 1.1 km/h 40 % 0 mm
15:04 32.3 °C 16.9 °C 1010 hPa NW 1.9 km/h 1.1 km/h 40 % 0 mm
15:09 32.4 °C 17.8 °C 1010 hPa WNW 1.9 km/h 0.2 km/h 42 % 0 mm
15:14 32.6 °C 16 °C 1009.7 hPa NW 3.7 km/h 3.1 km/h 37 % 0 mm
15:19 32.8 °C 15.7 °C 1009.7 hPa NW 5.6 km/h 1.4 km/h 36 % 0 mm
15:24 33.1 °C 16 °C 1009.7 hPa WNW 3.7 km/h 2.1 km/h 36 % 0 mm
15:29 33.2 °C 16.1 °C 1009.7 hPa WNW 1.9 km/h 1.1 km/h 36 % 0 mm
15:34 33.4 °C 16.3 °C 1009.4 hPa NW 1.9 km/h 0.3 km/h 36 % 0 mm
15:39 33.7 °C 16.9 °C 1009.4 hPa Calm   1 km/h 37 % 0 mm
15:44 33.7 °C 16.1 °C 1009.4 hPa NW 3.7 km/h 0.3 km/h 35 % 0 mm
15:49 33.8 °C 16.6 °C 1009.4 hPa NW 3.7 km/h 0.8 km/h 36 % 0 mm
15:54 33.8 °C 17.1 °C 1009 hPa NW 1.9 km/h 1.1 km/h 37 % 0 mm
15:59 33.9 °C 17.2 °C 1009 hPa NW 3.7 km/h 1.1 km/h 37 % 0 mm
16:04 34 °C 16.8 °C 1009 hPa NW 3.7 km/h 2.7 km/h 36 % 0 mm
16:09 34.1 °C 17.3 °C 1009.4 hPa NW 3.7 km/h 0.3 km/h 37 % 0 mm
16:14 34.2 °C 17 °C 1009.4 hPa WNW 4.8 km/h 3.2 km/h 36 % 0 mm
16:19 34.3 °C 17.1 °C 1009 hPa NW 3.7 km/h 2.6 km/h 36 % 0 mm
16:24 34.4 °C 17.2 °C 1009 hPa WNW 1.9 km/h 1.8 km/h 36 % 0 mm
16:29 34.5 °C 17.3 °C 1009 hPa WNW 6.4 km/h 2.7 km/h 36 % 0 mm
16:34 34.4 °C 17.7 °C 1009 hPa NW 3.2 km/h 1.9 km/h 37 % 0 mm
16:39 34.4 °C 17.7 °C 1009 hPa NW 3.7 km/h   37 % 0 mm
16:44 34.6 °C 18.2 °C 1009 hPa NW 3.7 km/h 2.1 km/h 38 % 0 mm
16:49 34.6 °C 16.9 °C 1009 hPa NNW 3.7 km/h 1.8 km/h 35 % 0 mm
16:54 34.6 °C 17.8 °C 1009 hPa NW 1.9 km/h 2.3 km/h 37 % 0 mm
16:59 34.9 °C 18.1 °C 1009 hPa NNW 5.6 km/h 0.6 km/h 37 % 0 mm
17:04 35.4 °C 18.6 °C 1008.7 hPa West 1.9 km/h 0.6 km/h 37 % 0 mm
17:09 35.9 °C 18.1 °C 1008.7 hPa NW 4.8 km/h 2.7 km/h 35 % 0 mm
17:14 35.9 °C 17.6 °C 1008.7 hPa WNW 5.6 km/h 1 km/h 34 % 0 mm
17:19 35.9 °C 18.1 °C 1008.7 hPa NW 5.6 km/h 3.5 km/h 35 % 0 mm
17:24 35.8 °C 18.4 °C 1008.7 hPa NW 3.7 km/h 2.6 km/h 36 % 0 mm
17:29 35.6 °C 18.2 °C 1008.7 hPa NNW 1.9 km/h 1.8 km/h 36 % 0 mm
17:34 35.4 °C 17.6 °C 1008.7 hPa NW 3.7 km/h 1.9 km/h 35 % 0 mm
17:39 35.2 °C 17.8 °C 1008.7 hPa NW 3.7 km/h 0.2 km/h 36 % 0 mm
17:44 35.2 °C 18.3 °C 1008.4 hPa NW 1.9 km/h 1.1 km/h 37 % 0 mm
17:49 35.5 °C 18.2 °C 1008.4 hPa NW 5.6 km/h 3.1 km/h 36 % 0 mm
17:54 35.7 °C 18.7 °C 1008.4 hPa NW 3.7 km/h 1.9 km/h 37 % 0 mm
17:59 35.8 °C 18.4 °C 1008 hPa WNW 1.9 km/h 1.6 km/h 36 % 0 mm
18:04 35.9 °C 18.5 °C 1008 hPa NW 3.7 km/h 2.6 km/h 36 % 0 mm
18:09 35.9 °C 18.1 °C 1008 hPa NW 5.6 km/h 1.1 km/h 35 % 0 mm
18:14 36 °C 17.7 °C 1008 hPa WNW 3.7 km/h 1.4 km/h 34 % 0 mm
18:19 36.1 °C 17.8 °C 1008 hPa NW 3.7 km/h 1.8 km/h 34 % 0 mm
18:24 36.1 °C 18.2 °C 1008 hPa North 3.7 km/h 2.7 km/h 35 % 0 mm
18:29 36.2 °C 17.8 °C 1008 hPa NW 1.9 km/h 1.6 km/h 34 % 0 mm
18:34 36.2 °C 17.8 °C 1008 hPa NW 5.6 km/h 2.3 km/h 34 % 0 mm
18:39 36.1 °C 18.7 °C 1008.4 hPa NW 5.6 km/h 2.3 km/h 36 % 0 mm
18:44 36.1 °C 18.2 °C 1008.4 hPa NW 3.2 km/h 1.4 km/h 35 % 0 mm
18:49 36.1 °C 18.2 °C 1008.4 hPa NW 3.7 km/h 1.3 km/h 35 % 0 mm
18:54 36 °C 17.7 °C 1008.4 hPa NW 6.4 km/h 3.1 km/h 34 % 0 mm
18:59 35.8 °C 17.9 °C 1008.4 hPa WNW 3.7 km/h 1.9 km/h 35 % 0 mm
19:04 35.6 °C 18.2 °C 1008.4 hPa NW 3.7 km/h 2.7 km/h 36 % 0 mm
19:09 35.3 °C 18.4 °C 1008.4 hPa WNW 5.6 km/h 2.3 km/h 37 % 0 mm
19:14 35.2 °C 18.3 °C 1008.4 hPa NW 3.7 km/h 2.6 km/h 37 % 0 mm
19:19 35.1 °C 18.2 °C 1008.7 hPa NW 5.6 km/h 1.9 km/h 37 % 0 mm
19:24 34.8 °C 18.4 °C 1008.7 hPa NW 3.7 km/h 1.4 km/h 38 % 0 mm
19:29 34.5 °C 18.1 °C 1008.7 hPa NW 3.2 km/h 0.6 km/h 38 % 0 mm
19:34 34.3 °C 18.3 °C 1008.7 hPa SW 1.9 km/h 0.8 km/h 39 % 0 mm
19:39 34.1 °C 18.2 °C 1008.7 hPa Calm     39 % 0 mm
19:44 33.8 °C 18.3 °C 1008.7 hPa Calm     40 % 0 mm
19:49 33.6 °C 18.1 °C 1008.7 hPa West 1.9 km/h   40 % 0 mm
19:54 33.4 °C 17.6 °C 1009 hPa NW 1.9 km/h 1.3 km/h 39 % 0 mm
19:59 33.2 °C 17.4 °C 1009 hPa WNW 3.7 km/h 1.6 km/h 39 % 0 mm
20:04 33.1 °C 17.3 °C 1009 hPa WNW 1.9 km/h 1.1 km/h 39 % 0 mm
20:09 32.9 °C 17.6 °C 1009 hPa Calm     40 % 0 mm
20:14 32.8 °C 17.4 °C 1009 hPa WNW 1.9 km/h   40 % 0 mm
20:19 32.7 °C 17.3 °C 1009 hPa WNW 1.9 km/h 0.2 km/h 40 % 0 mm
20:24 32.6 °C 17.3 °C 1009.4 hPa Calm   0.6 km/h 40 % 0 mm
20:29 32.5 °C 17.9 °C 1009.4 hPa Calm     42 % 0 mm
20:34 32.2 °C 17.7 °C 1009.4 hPa Calm     42 % 0 mm
20:39 32.1 °C 17.9 °C 1009.4 hPa Calm     43 % 0 mm
20:44 31.8 °C 18.1 °C 1009.4 hPa Calm     44 % 0 mm
20:49 31.6 °C 18.6 °C 1009.4 hPa Calm     46 % 0 mm
20:54 31.3 °C 18.6 °C 1009.4 hPa Calm     47 % 0 mm
20:59 31 °C 19.1 °C 1009.4 hPa Calm     49 % 0 mm
21:04 30.8 °C 19.2 °C 1009.4 hPa Calm     50 % 0 mm
21:09 30.7 °C 18.4 °C 1009.4 hPa Calm     48 % 0 mm
21:14 30.6 °C 19.3 °C 1009.4 hPa Calm     51 % 0 mm
21:19 30.2 °C 18.9 °C 1009.4 hPa Calm     51 % 0 mm
21:24 30 °C 18.8 °C 1009.7 hPa Calm     51 % 0 mm
21:29 29.8 °C 19.2 °C 1009.7 hPa Calm     53 % 0 mm
21:34 29.4 °C 19.4 °C 1009.7 hPa Calm     55 % 0 mm
21:39 29.2 °C 19.2 °C 1009.7 hPa Calm     55 % 0 mm
21:44 29 °C 19.3 °C 1009.7 hPa Calm     56 % 0 mm
21:49 28.9 °C 19.5 °C 1009.7 hPa Calm     57 % 0 mm
21:54 28.7 °C 19.6 °C 1009.7 hPa Calm     58 % 0 mm
21:59 28.5 °C 18.9 °C 1009.7 hPa Calm     56 % 0 mm
22:04 28.4 °C 19.4 °C 1010 hPa Calm     58 % 0 mm
22:09 28.4 °C 19.1 °C 1010 hPa Calm     57 % 0 mm
22:14 28.3 °C 19.5 °C 1010 hPa Calm     59 % 0 mm
22:19 28.2 °C 19.7 °C 1010 hPa Calm     60 % 0 mm
22:24 28.1 °C 19.9 °C 1010.4 hPa Calm     61 % 0 mm
22:29 27.8 °C 19.9 °C 1010.4 hPa Calm     62 % 0 mm
22:34 27.6 °C 19.3 °C 1010.4 hPa WSW 1.9 km/h   61 % 0 mm
22:37 27.5 °C 19.3 °C 1010.4 hPa Calm     61 % 0 mm
22:44 27.2 °C 19.3 °C 1010.4 hPa Calm     62 % 0 mm
22:49 27.2 °C 19 °C 1010.4 hPa Calm     61 % 0 mm
22:54 27.1 °C 18.9 °C 1010.7 hPa SE 1.9 km/h 0.3 km/h 61 % 0 mm
22:59 27.1 °C 18.9 °C 1010.7 hPa SE 1.9 km/h   61 % 0 mm
23:04 27.1 °C 19.2 °C 1010.7 hPa SE 1.6 km/h   62 % 0 mm
23:09 27.1 °C 19.2 °C 1010.7 hPa Calm     62 % 0 mm
23:14 26.8 °C 18.9 °C 1010.7 hPa Calm     62 % 0 mm
23:15 26.8 °C 18.9 °C 1010.7 hPa Calm     62 % 0 mm
23:29 26.4 °C 18.8 °C 1011.1 hPa SE 1.9 km/h 0.2 km/h 63 % 0 mm
23:34 26.4 °C 18.5 °C 1011.1 hPa Calm   0.3 km/h 62 % 0 mm
23:39 26.3 °C 18.2 °C 1011.1 hPa Calm   0.2 km/h 61 % 0 mm
23:44 26.3 °C 18.2 °C 1011.1 hPa ESE 1.6 km/h 0.2 km/h 61 % 0 mm
23:49 26.2 °C 17.6 °C 1011.1 hPa ESE 1.9 km/h 0.2 km/h 59 % 0 mm
23:54 26.2 °C 17.3 °C 1011.1 hPa SE 1.9 km/h   58 % 0 mm
23:59 26.1 °C 17.2 °C 1011.1 hPa ESE 1.9 km/h 0.6 km/h 58 % 0 mm
Park Place, Exeter, Tulare County, California, USA
Compliments of Weather Underground - 2.75 mb